Terminal Aerodrome Forecast
Issued by NWS

Current Version | Previous Version | Text Only | Print | Product List | Glossary On
Versions: 1 2 3 4 5 6 7 8 9 10 11 12 13 14 15 16 17 18
099
FTUS45 KABQ 241359 AAA
TAFLVS
TAF AMD
KLVS 241359Z 2414/2512 VRB06KT P6SM SCT003 OVC015
      TEMPO 2414/2416 3/4SM BR OVC003
     FM241600 21012G20KT P6SM SCT015
     FM241800 21020G30KT P6SM SKC
     FM250100 16010KT P6SM FEW080
     FM250600 04006KT P6SM SCT060=

USA.gov is the U.S. government's official web portal to all federal, state and local government web resources and services.